Weather at Profitis Heliport

Public forecast

Using degrees Celsius for public forecast. Weather courtesy of forecast.io.

Closest aviation weather report (METAR) to Profitis Heliport

Closest report is Thessaloniki Macedonia International Airport, 17.1 nm (31.7 km) SW.

2024/05/27 22:50 (retrieved 11 minutes ago)

LGTS 272250Z 11004KT 9999 FEW030 16/05 Q1015 NOSIG

Closest aviation forecast (TAF) to Profitis Heliport

Closest forecast is Thessaloniki Macedonia International Airport, 17.1 nm (31.7 km) SW.

2024/05/27 18:16 (retrieved 5 hours ago)

TAF LGTS 271700Z 2718/2818 15012KT 9999 FEW030 BECMG 2720/2722 VRB03KT BECMG 2812/2814 17014KT